Weather at Sundbro Airport

Public forecast

Using degrees Celsius for public forecast. Weather courtesy of forecast.io.

Closest aviation weather report (METAR) to Sundbro Airport

Closest report is Stockholm-Arlanda Airport, 19.9 nm (36.9 km) SE. Retrieved 2022/01/17 16:20 UTC (10 minutes ago):

ESSA 171620Z 27007KT CAVOK M02/M08 Q1012 NOSIG

Closest aviation forecast (TAF) to Sundbro Airport

Closest forecast is Stockholm-Arlanda Airport, 19.9 nm (36.9 km) SE. Retrieved 2022/01/17 12:00 UTC (5 hours ago):

TAF ESSA 171130Z 1712/1812 34015G25KT 9999 FEW040 BECMG 1712/1715 29010KT PROB40 1719/1722 4000 -SHSN SCT030TCU BECMG 1807/1809 23008KT